Terminal Aerodrome Forecast
Issued by NWS

Home | Current Version | Previous Version | Text Only | Print | Product List | Glossary On
Versions: 1 2 3 4 5 6 7 8 9 10 11 12 13 14 15 16 17 18 19 20 21 22 23 24 25 26 27 28
000
FTAK31 PANC 232121 AAB
TAFAGK
TAF AMD
PAGK 232121Z 2321/2418 VRB03KT P6SM OVC025
      TEMPO 2321/2324 OVC015
     FM240600 VRB03KT P6SM VCSH SCT025 OVC040=

USA.gov is the U.S. government's official web portal to all federal, state and local government web resources and services.